Time;durP1;ratioP1;P1;durP2;ratioP2;P2;SDS_P1;SDS_P2;PMS_P1;PMS_P2;Temp;Humidity;BMP_temperature;BMP_pressure;BME280_temperature;BME280_humidity;BME280_pressure;Samples;Min_cycle;Max_cycle;Signal;HPM_P1;HPM_P2
2021/10/24 00:00:26;;;;;;;17.80;11.85;;;;;;;5.59;97.98;101686.63;5041380;28;20056;-52
2021/10/24 00:02:53;;;;;;;20.40;12.52;;;;;;;5.60;98.33;101689.25;5040872;28;20052;-54
2021/10/24 00:05:19;;;;;;;19.33;11.23;;;;;;;5.59;98.37;101692.75;5003794;28;20056;-52
2021/10/24 00:07:46;;;;;;;20.45;11.20;;;;;;;5.57;97.90;101688.41;5028490;28;20414;-52
2021/10/24 00:10:14;;;;;;;17.90;11.73;;;;;;;5.54;98.43;101684.03;5036032;28;20132;-52
2021/10/24 00:12:40;;;;;;;18.13;11.93;;;;;;;5.52;97.91;101688.41;5042805;28;20049;-54
2021/10/24 00:15:07;;;;;;;24.13;12.45;;;;;;;5.46;97.74;101682.34;5032939;28;20049;-51
2021/10/24 00:17:34;;;;;;;17.23;11.55;;;;;;;5.41;98.04;101687.59;5037444;28;20064;-51
2021/10/24 00:20:01;;;;;;;19.30;11.55;;;;;;;5.40;97.97;101677.09;5037498;28;20052;-51
2021/10/24 00:22:28;;;;;;;17.40;11.43;;;;;;;5.38;98.58;101674.47;5039834;28;20068;-52
2021/10/24 00:24:55;;;;;;;19.45;11.13;;;;;;;5.35;98.65;101666.66;5035463;28;20052;-52
2021/10/24 00:27:22;;;;;;;20.45;11.10;;;;;;;5.36;98.93;101678.00;5035088;28;20048;-52
2021/10/24 00:29:48;;;;;;;17.55;12.32;;;;;;;5.36;98.45;101672.75;5033749;28;20095;-53
2021/10/24 00:32:15;;;;;;;18.75;11.85;;;;;;;5.36;97.68;101671.00;5040860;28;20466;-52
2021/10/24 00:34:42;;;;;;;19.13;10.77;;;;;;;5.32;97.47;101673.66;5036136;28;20072;-53
2021/10/24 00:37:09;;;;;;;17.58;11.25;;;;;;;5.29;98.17;101678.03;5031052;28;20045;-53
2021/10/24 00:39:35;;;;;;;18.70;11.77;;;;;;;5.25;98.64;101681.56;5042217;28;20064;-52
2021/10/24 00:42:02;;;;;;;17.90;11.55;;;;;;;5.07;98.53;101647.50;5042542;28;20049;-55
2021/10/24 00:44:34;;;;;;;18.27;12.02;;;;;;;5.18;98.65;101671.97;5032106;28;20041;-53
2021/10/24 00:47:04;;;;;;;18.80;11.15;;;;;;;5.17;98.46;101674.59;5027652;28;20286;-51
2021/10/24 00:49:32;;;;;;;21.83;12.63;;;;;;;5.15;98.79;101672.00;5034935;28;20047;-51
2021/10/24 00:51:59;;;;;;;17.58;11.25;;;;;;;5.13;99.40;101670.25;5036670;28;20041;-52
2021/10/24 00:54:27;;;;;;;20.92;11.98;;;;;;;5.13;99.20;101672.88;5029835;28;20107;-52
2021/10/24 00:56:55;;;;;;;18.42;11.63;;;;;;;5.10;98.90;101673.75;5028175;28;20049;-52
2021/10/24 00:59:25;;;;;;;17.48;11.32;;;;;;;5.06;98.19;101673.75;5042986;28;20434;-52
2021/10/24 01:01:52;;;;;;;22.23;11.20;;;;;;;5.03;98.65;101671.16;5040856;28;20041;-53
2021/10/24 01:04:19;;;;;;;20.40;11.93;;;;;;;5.02;98.04;101667.66;5041041;28;20041;-52
2021/10/24 01:06:50;;;;;;;17.38;10.63;;;;;;;5.00;98.52;101668.56;5028853;28;20049;-52
2021/10/24 01:09:20;;;;;;;17.40;10.75;;;;;;;4.97;98.02;101663.31;5041118;28;20140;-51
2021/10/24 01:11:51;;;;;;;16.67;11.27;;;;;;;4.90;98.55;101655.44;5040039;28;20045;-52
2021/10/24 01:14:18;;;;;;;16.88;11.10;;;;;;;4.87;98.85;101659.84;5034166;28;20044;-53
2021/10/24 01:16:44;;;;;;;17.50;11.50;;;;;;;4.72;99.20;101638.91;5027263;28;20059;-51
2021/10/24 01:19:13;;;;;;;19.55;11.95;;;;;;;4.83;99.43;101658.09;5039889;28;20502;-53
2021/10/24 01:21:39;;;;;;;17.95;11.25;;;;;;;4.83;99.17;101653.72;5036590;28;20579;-53
2021/10/24 01:24:06;;;;;;;18.30;11.50;;;;;;;4.82;99.22;101653.72;5025791;28;20053;-53
2021/10/24 01:26:38;;;;;;;20.38;11.55;;;;;;;4.79;98.91;101659.00;5027891;28;20040;-53
2021/10/24 01:29:06;;;;;;;17.52;11.18;;;;;;;4.76;98.89;101649.38;5042852;28;20037;-52
2021/10/24 01:31:33;;;;;;;17.33;11.00;;;;;;;4.74;99.23;101648.50;5037958;28;20041;-52
2021/10/24 01:34:04;;;;;;;25.55;12.40;;;;;;;4.73;99.16;101651.13;5037337;28;20924;-52
2021/10/24 01:36:32;;;;;;;18.30;11.98;;;;;;;4.71;99.19;101651.16;5030117;28;20112;-53
2021/10/24 01:38:59;;;;;;;18.42;12.00;;;;;;;4.69;100.00;101644.16;5041945;28;20041;-51
2021/10/24 01:41:28;;;;;;;19.35;11.68;;;;;;;4.69;100.00;101647.66;5040987;28;20053;-53
2021/10/24 01:43:55;;;;;;;19.30;11.65;;;;;;;4.66;99.83;101649.41;5007781;28;20061;-53
2021/10/24 01:46:22;;;;;;;21.02;11.57;;;;;;;4.64;99.04;101640.66;5026437;28;20049;-51
2021/10/24 01:48:49;;;;;;;16.08;10.93;;;;;;;4.64;98.81;101641.53;5037242;28;20044;-53
2021/10/24 01:51:16;;;;;;;20.23;11.52;;;;;;;4.57;99.31;101635.44;5036079;28;20482;-52
2021/10/24 01:53:45;;;;;;;18.77;12.00;;;;;;;4.55;99.91;101631.97;5034463;28;20049;-53
2021/10/24 01:56:12;;;;;;;18.95;11.57;;;;;;;4.53;99.52;101623.22;5027086;28;20051;-52
2021/10/24 01:58:39;;;;;;;17.08;11.52;;;;;;;4.53;99.27;101627.59;5037367;28;20049;-52
2021/10/24 02:01:06;;;;;;;15.88;10.63;;;;;;;4.49;100.00;101625.84;5043933;28;20052;-53
2021/10/24 02:03:57;;;;;;;17.95;11.45;;;;;;;4.48;100.00;101624.97;5035919;28;20076;-52
2021/10/24 02:06:48;;;;;;;17.70;10.80;;;;;;;4.46;99.59;101616.22;5009678;28;20410;-53
2021/10/24 02:09:17;;;;;;;16.67;10.75;;;;;;;4.46;99.69;101620.59;5023927;28;20056;-52
2021/10/24 02:11:44;;;;;;;19.42;11.07;;;;;;;4.48;100.00;101614.47;5036841;28;20075;-52
2021/10/24 02:14:11;;;;;;;16.73;11.07;;;;;;;4.49;98.67;101613.59;5030190;28;20045;-51
2021/10/24 02:16:37;;;;;;;18.73;11.40;;;;;;;4.43;98.84;101610.97;5030642;28;20060;-53
2021/10/24 02:19:04;;;;;;;17.27;11.27;;;;;;;4.40;98.82;101608.41;5028433;28;20072;-52
2021/10/24 02:21:30;;;;;;;17.85;11.68;;;;;;;4.38;99.52;101607.53;5037267;28;20423;-53
2021/10/24 02:23:57;;;;;;;19.40;11.40;;;;;;;4.37;99.88;101605.78;5039049;28;20045;-52
2021/10/24 02:26:23;;;;;;;16.02;11.23;;;;;;;4.37;100.00;101612.78;5030128;28;20295;-52
2021/10/24 02:28:51;;;;;;;15.70;11.68;;;;;;;4.22;99.88;101590.94;5036326;28;20152;-52
2021/10/24 02:31:17;;;;;;;19.27;11.75;;;;;;;4.32;100.00;101607.53;5040142;28;20045;-52
2021/10/24 02:33:44;;;;;;;16.73;10.95;;;;;;;4.30;100.00;101611.03;5040173;28;20041;-53
2021/10/24 02:36:10;;;;;;;15.55;10.93;;;;;;;4.26;100.00;101607.53;5028727;28;20045;-53
2021/10/24 02:38:37;;;;;;;15.23;11.20;;;;;;;4.28;99.73;101605.78;5040821;28;20049;-53
2021/10/24 02:41:04;;;;;;;16.20;10.95;;;;;;;4.25;99.75;101600.53;5033126;28;20052;-53
2021/10/24 02:43:30;;;;;;;18.65;11.27;;;;;;;4.25;99.88;101600.53;5038843;28;20494;-52
2021/10/24 02:45:57;;;;;;;17.95;11.30;;;;;;;4.23;99.91;101597.94;5029911;28;20118;-51
2021/10/24 02:48:24;;;;;;;19.15;11.10;;;;;;;4.25;99.88;101599.69;5034875;28;20046;-53
2021/10/24 02:50:50;;;;;;;17.08;11.52;;;;;;;4.22;99.72;101590.94;5040238;28;20506;-54
2021/10/24 02:53:17;;;;;;;17.63;10.63;;;;;;;4.23;99.91;101597.06;5039437;28;20059;-52
2021/10/24 02:55:43;;;;;;;20.98;10.98;;;;;;;4.22;100.00;101596.19;5036692;28;20049;-53
2021/10/24 02:58:10;;;;;;;16.48;11.30;;;;;;;4.18;99.85;101589.19;5036045;28;20052;-53
2021/10/24 03:00:36;;;;;;;19.65;11.52;;;;;;;4.17;100.00;101589.19;5045973;28;20052;-52
2021/10/24 03:03:03;;;;;;;18.45;11.68;;;;;;;4.17;100.00;101594.44;5033801;28;20119;-53
2021/10/24 03:05:29;;;;;;;15.35;11.07;;;;;;;4.18;100.00;101588.31;5034945;28;20053;-53
2021/10/24 03:07:56;;;;;;;17.70;11.45;;;;;;;4.18;99.90;101589.19;5008342;28;20056;-52
2021/10/24 03:10:22;;;;;;;16.98;11.60;;;;;;;4.15;99.66;101588.31;5028297;28;20045;-52
2021/10/24 03:12:49;;;;;;;20.13;11.93;;;;;;;4.12;100.00;101590.94;5035409;28;20414;-52
2021/10/24 03:15:16;;;;;;;19.17;10.98;;;;;;;4.10;99.69;101584.81;5037799;28;20494;-53
2021/10/24 03:17:42;;;;;;;16.08;11.40;;;;;;;4.07;99.97;101577.00;5029239;28;20052;-52
2021/10/24 03:20:09;;;;;;;18.52;12.13;;;;;;;4.01;99.55;101577.88;5038303;28;20045;-52
2021/10/24 03:22:36;;;;;;;20.20;11.80;;;;;;;3.99;100.00;101576.13;5037191;28;20040;-52
2021/10/24 03:25:02;;;;;;;18.10;11.50;;;;;;;3.95;100.00;101577.84;5037901;28;20042;-52
2021/10/24 03:27:29;;;;;;;19.20;11.30;;;;;;;3.89;99.49;101575.25;5030975;28;20045;-54
2021/10/24 03:29:57;;;;;;;20.02;11.15;;;;;;;3.88;100.00;101578.75;5038118;28;20049;-52
2021/10/24 03:32:24;;;;;;;15.77;11.10;;;;;;;3.82;100.00;101573.50;5040805;28;20049;-53
2021/10/24 03:34:51;;;;;;;14.73;10.68;;;;;;;3.82;100.00;101579.63;5040730;28;20044;-53
2021/10/24 03:37:17;;;;;;;17.75;10.90;;;;;;;3.82;100.00;101577.00;5028115;28;20052;-52
2021/10/24 03:39:45;;;;;;;15.23;11.07;;;;;;;3.76;99.93;101584.88;5037362;28;21157;-53
2021/10/24 03:42:11;;;;;;;15.90;10.35;;;;;;;3.80;100.00;101589.22;5043390;28;20409;-52
2021/10/24 03:44:37;;;;;;;17.73;11.10;;;;;;;3.77;99.50;101589.25;5040201;28;20045;-53
2021/10/24 03:47:04;;;;;;;18.83;10.32;;;;;;;3.74;99.87;101580.50;5033540;28;20041;-51
2021/10/24 03:49:31;;;;;;;16.77;10.93;;;;;;;3.73;100.00;101586.63;5039147;28;20056;-53
2021/10/24 03:51:57;;;;;;;15.32;10.77;;;;;;;3.67;100.00;101579.63;5027274;28;20049;-52
2021/10/24 03:54:24;;;;;;;16.05;9.82;;;;;;;3.66;100.00;101588.34;5030676;28;20359;-52
2021/10/24 03:56:51;;;;;;;16.33;10.98;;;;;;;3.64;99.83;101579.63;5033927;28;20070;-52
2021/10/24 03:59:18;;;;;;;14.85;10.98;;;;;;;3.62;100.00;101583.97;5036247;28;20057;-51
2021/10/24 04:01:44;;;;;;;15.98;10.40;;;;;;;3.60;100.00;101588.38;5035634;28;20045;-53
2021/10/24 04:04:37;;;;;;;15.65;10.32;;;;;;;3.58;100.00;101589.25;5038483;28;20573;-51
2021/10/24 07:43:53;;;;;;;14.35;9.60;;;;;;;4.44;95.73;101580.38;5016304;28;20746;-51
2021/10/24 07:46:20;;;;;;;14.35;9.95;;;;;;;4.56;94.74;101575.97;5025596;28;20045;-51
2021/10/24 07:48:52;;;;;;;17.15;10.02;;;;;;;4.66;94.56;101570.69;5021321;28;20051;-53
2021/10/24 07:51:18;;;;;;;12.88;9.40;;;;;;;4.77;93.90;101572.41;5018660;28;20334;-52
2021/10/24 07:53:45;;;;;;;15.10;9.95;;;;;;;4.88;93.11;101574.97;5018507;28;20045;-52
2021/10/24 07:56:11;;;;;;;17.13;9.95;;;;;;;4.98;91.41;101568.81;5020551;28;20379;-51
2021/10/24 07:58:39;;;;;;;12.73;9.10;;;;;;;5.06;90.74;101566.13;5009231;28;20041;-54
2021/10/24 08:01:06;;;;;;;15.15;10.10;;;;;;;5.15;90.89;101566.97;5018628;28;20410;-53
2021/10/24 08:03:33;;;;;;;14.25;9.55;;;;;;;5.34;91.38;101569.47;5016293;28;20133;-53
2021/10/24 08:06:00;;;;;;;14.23;9.63;;;;;;;5.70;89.44;101577.06;5015395;28;20050;-53
2021/10/24 08:08:27;;;;;;;13.38;9.15;;;;;;;5.90;89.38;101569.91;5014808;28;20046;-53
2021/10/24 08:10:54;;;;;;;12.20;8.55;;;;;;;6.26;86.93;101570.44;5022890;28;20397;-54
2021/10/24 08:13:20;;;;;;;12.75;8.68;;;;;;;6.60;84.54;101573.56;5013110;28;20049;-53
2021/10/24 08:15:48;;;;;;;10.20;8.38;;;;;;;6.83;80.92;101568.88;5011780;28;20056;-52
2021/10/24 08:18:14;;;;;;;12.20;8.30;;;;;;;6.82;81.79;101558.38;5022173;28;20111;-52
2021/10/24 08:20:44;;;;;;;14.80;8.85;;;;;;;6.82;82.33;101558.38;5018314;28;20048;-52
2021/10/24 08:23:12;;;;;;;15.75;9.00;;;;;;;6.84;80.79;101557.47;5024191;28;20047;-53
2021/10/24 08:25:38;;;;;;;12.00;8.63;;;;;;;6.81;81.12;101554.84;5010412;28;20494;-53
2021/10/24 08:28:05;;;;;;;16.25;9.30;;;;;;;6.82;81.79;101556.59;5006976;28;20412;-53
2021/10/24 08:30:32;;;;;;;12.35;7.97;;;;;;;6.92;81.73;101557.38;5018090;28;20041;-52
2021/10/24 08:32:58;;;;;;;16.98;9.05;;;;;;;6.88;80.33;101548.63;5021214;28;20057;-53
2021/10/24 08:35:25;;;;;;;12.98;8.63;;;;;;;7.02;79.93;101554.59;5009341;28;20061;-53
2021/10/24 08:37:52;;;;;;;12.20;8.27;;;;;;;6.96;80.12;101559.03;5021962;28;20056;-52
2021/10/24 08:40:19;;;;;;;10.68;7.85;;;;;;;6.96;80.64;101559.03;5024295;28;20049;-52
2021/10/24 08:42:51;;;;;;;12.57;8.95;;;;;;;7.00;80.54;101560.75;5027503;28;20060;-51
2021/10/24 08:45:18;;;;;;;11.48;8.48;;;;;;;7.06;81.32;101546.66;5031451;28;20047;-52
2021/10/24 08:47:44;;;;;;;11.80;8.35;;;;;;;7.10;80.02;101551.81;5035224;28;20056;-52
2021/10/24 08:50:12;;;;;;;12.15;7.70;;;;;;;7.21;78.69;101556.97;5040590;28;20045;-51
2021/10/24 08:52:39;;;;;;;13.75;7.07;;;;;;;7.23;77.34;101529.69;5037713;28;20044;-51
2021/10/24 08:55:07;;;;;;;10.82;7.28;;;;;;;7.51;75.76;101542.44;5030224;28;20045;-51
2021/10/24 08:57:34;;;;;;;12.40;7.50;;;;;;;7.67;74.71;101546.56;5036001;28;20181;-53
2021/10/24 09:00:04;;;;;;;12.48;7.60;;;;;;;7.79;73.68;101551.63;5038400;28;20045;-53
2021/10/24 09:02:53;;;;;;;10.73;6.40;;;;;;;7.91;73.10;101548.75;5037565;28;20386;-52
2021/10/24 09:05:33;;;;;;;13.48;6.53;;;;;;;8.03;71.77;101539.75;5023442;28;20042;-53
2021/10/24 09:08:00;;;;;;;11.57;6.20;;;;;;;8.12;70.83;101536.09;5048060;28;20889;-52
2021/10/24 09:10:35;;;;;;;10.88;6.40;;;;;;;8.20;70.20;101542.06;5044176;28;20044;-53
2021/10/24 09:13:04;;;;;;;11.38;6.63;;;;;;;8.34;69.67;101532.19;5038983;28;20052;-52
2021/10/24 09:16:01;;;;;;;9.30;6.18;;;;;;;8.46;68.44;101531.06;5029212;28;20054;-52
2021/10/24 09:18:33;;;;;;;11.43;6.30;;;;;;;8.54;68.04;101527.34;5044356;28;20193;-51
2021/10/24 09:21:20;;;;;;;9.68;5.95;;;;;;;8.68;67.74;101525.28;5039246;28;20049;-53
2021/10/24 09:23:53;;;;;;;10.27;6.03;;;;;;;8.84;67.42;101522.31;5033490;28;20043;-54
2021/10/24 09:26:22;;;;;;;10.13;6.05;;;;;;;8.93;65.76;101522.13;5039045;28;20049;-53
2021/10/24 09:29:16;;;;;;;10.65;5.93;;;;;;;8.94;65.66;101505.38;5038752;28;20053;-53
2021/10/24 09:31:43;;;;;;;8.68;6.32;;;;;;;9.22;65.22;101510.91;5034071;28;20509;-52
2021/10/24 09:34:21;;;;;;;10.48;6.47;;;;;;;9.42;64.32;101509.53;5028059;28;20053;-52
2021/10/24 09:36:59;;;;;;;12.10;6.07;;;;;;;9.73;63.23;101509.63;5029319;28;20071;-51
2021/10/24 09:39:28;;;;;;;9.70;5.65;;;;;;;10.07;62.17;101506.09;5040571;28;20052;-53
2021/10/24 09:42:17;;;;;;;11.63;5.63;;;;;;;10.61;60.61;101505.44;5046001;28;20049;-51
2021/10/24 09:45:05;;;;;;;8.77;5.70;;;;;;;11.39;57.71;101495.94;5028774;28;20127;-53
2021/10/24 09:47:52;;;;;;;8.43;5.63;;;;;;;12.04;56.78;101496.38;5041181;28;20059;-51
2021/10/24 09:50:39;;;;;;;7.90;5.32;;;;;;;12.88;52.52;101490.59;5040077;28;20060;-54
2021/10/24 09:53:13;;;;;;;8.13;5.10;;;;;;;13.38;51.18;101488.56;5036564;28;20037;-52
2021/10/24 09:55:41;;;;;;;7.30;5.15;;;;;;;13.50;50.84;101489.88;5026330;28;20056;-51
2021/10/24 09:58:09;;;;;;;8.82;4.93;;;;;;;13.64;48.75;101485.72;5041430;28;20048;-53
2021/10/24 10:00:37;;;;;;;7.50;5.30;;;;;;;13.68;49.51;101481.13;5035769;28;20048;-52
2021/10/24 10:03:05;;;;;;;7.25;4.90;;;;;;;14.00;49.47;101471.75;5035239;28;20036;-53
2021/10/24 10:05:33;;;;;;;8.68;5.03;;;;;;;14.44;48.03;101476.91;5022548;28;20136;-53
2021/10/24 10:08:00;;;;;;;6.50;4.80;;;;;;;14.54;47.67;101467.53;5052583;28;20044;-52
2021/10/24 10:10:28;;;;;;;8.40;4.72;;;;;;;14.53;46.64;101468.47;5042698;28;20060;-53
2021/10/24 10:13:00;;;;;;;6.93;4.70;;;;;;;14.31;47.83;101468.56;5038543;28;20060;-53
2021/10/24 10:15:35;;;;;;;7.93;5.30;;;;;;;14.10;47.33;101465.06;5027726;28;20045;-53
2021/10/24 10:18:04;;;;;;;8.40;5.07;;;;;;;13.81;48.56;101466.34;5039395;28;20068;-53
2021/10/24 10:20:33;;;;;;;6.53;4.93;;;;;;;13.50;49.18;101472.13;5036229;28;20049;-52
2021/10/24 10:23:08;;;;;;;8.50;4.75;;;;;;;13.24;50.56;101469.66;5036126;28;20592;-52
2021/10/24 10:25:37;;;;;;;7.85;5.00;;;;;;;13.09;50.87;101459.59;5022854;28;20041;-51
2021/10/24 10:28:06;;;;;;;6.88;4.90;;;;;;;12.81;51.39;101452.72;5040252;28;20451;-52
2021/10/24 10:30:39;;;;;;;9.50;5.47;;;;;;;12.59;52.65;101457.16;5041354;28;20289;-52
2021/10/24 10:33:29;;;;;;;9.50;5.30;;;;;;;12.58;52.99;101450.13;5041742;28;20090;-54
2021/10/24 10:35:56;;;;;;;6.20;4.85;;;;;;;12.49;52.76;101446.00;5030541;28;20049;-52
2021/10/24 10:38:36;;;;;;;7.95;5.03;;;;;;;12.27;53.81;101451.28;5041709;28;20044;-53
2021/10/24 10:41:04;;;;;;;8.55;5.43;;;;;;;12.10;54.36;101443.06;5034692;28;20037;-52
2021/10/24 10:43:32;;;;;;;7.28;5.15;;;;;;;12.02;54.36;101436.28;5035511;28;20045;-53
2021/10/24 10:46:01;;;;;;;7.43;5.28;;;;;;;11.67;55.08;101438.38;5032966;28;20482;-53
2021/10/24 10:48:40;;;;;;;8.00;5.03;;;;;;;11.44;56.02;101436.53;5040009;28;21048;-51
2021/10/24 10:51:13;;;;;;;8.30;5.07;;;;;;;11.46;56.69;101432.03;5035020;28;20042;-54
2021/10/24 10:53:45;;;;;;;9.38;5.03;;;;;;;11.43;56.31;101418.88;5050171;28;20062;-53
2021/10/24 10:56:11;;;;;;;9.10;5.10;;;;;;;11.41;57.75;101423.38;5029630;28;20060;-52
2021/10/24 10:58:41;;;;;;;9.95;5.15;;;;;;;11.52;56.78;101423.00;5027568;28;20072;-54
2021/10/24 11:01:38;;;;;;;6.90;4.75;;;;;;;11.67;56.11;101424.25;5030298;28;20038;-53
2021/10/24 11:04:12;;;;;;;11.02;5.45;;;;;;;11.63;56.05;101410.25;5030645;28;20106;-53
2021/10/24 11:06:38;;;;;;;10.10;4.88;;;;;;;11.63;55.88;101412.03;5029561;28;20052;-52
2021/10/24 11:09:12;;;;;;;8.45;5.38;;;;;;;11.65;56.30;101404.88;5038293;28;20045;-53
2021/10/24 11:14:13;;;;;;;11.52;5.45;;;;;;;11.80;56.13;101409.69;5041253;28;20069;-52
2021/10/24 11:16:59;;;;;;;10.60;5.25;;;;;;;11.80;56.16;101401.72;5038604;28;20050;-53
2021/10/24 11:19:26;;;;;;;10.38;5.57;;;;;;;11.79;55.99;101392.88;5044754;28;20049;-51
2021/10/24 11:22:01;;;;;;;8.15;5.20;;;;;;;11.76;56.35;101400.94;5035874;28;20490;-51
2021/10/24 11:24:55;;;;;;;8.55;5.20;;;;;;;11.82;56.46;101391.88;5038508;28;20288;-53
2021/10/24 11:27:31;;;;;;;9.38;5.40;;;;;;;11.78;58.00;101388.50;5039605;28;20041;-52
2021/10/24 11:30:00;;;;;;;7.75;5.32;;;;;;;11.94;56.30;101388.81;5041352;28;20045;-51
2021/10/24 11:32:35;;;;;;;8.18;5.20;;;;;;;12.03;55.87;101388.44;5044807;28;20045;-53
2021/10/24 11:35:14;;;;;;;10.20;5.13;;;;;;;12.10;56.34;101389.09;5035783;28;20541;-55
2021/10/24 11:37:48;;;;;;;9.00;5.30;;;;;;;12.19;55.94;101375.47;5042340;28;20052;-54
2021/10/24 11:40:22;;;;;;;7.38;5.20;;;;;;;12.35;54.48;101373.94;5041683;28;20045;-52
2021/10/24 11:42:59;;;;;;;9.20;5.53;;;;;;;12.38;54.85;101363.22;5041046;28;20052;-52
2021/10/24 11:45:35;;;;;;;9.50;4.97;;;;;;;12.46;54.85;101362.91;5024959;28;20136;-54
2021/10/24 11:48:03;;;;;;;9.20;5.32;;;;;;;12.55;54.76;101365.22;5041015;28;20079;-51
2021/10/24 11:50:47;;;;;;;7.75;5.43;;;;;;;12.64;54.43;101354.19;5041029;28;20055;-51
2021/10/24 11:53:22;;;;;;;8.27;5.45;;;;;;;12.77;55.04;101347.47;5046543;28;20044;-52
2021/10/24 11:55:54;;;;;;;9.25;5.28;;;;;;;12.84;55.75;101348.94;5027534;28;20049;-53
2021/10/24 11:58:47;;;;;;;8.32;4.95;;;;;;;12.89;54.87;101344.31;5040387;28;20045;-51
2021/10/24 12:01:22;;;;;;;8.05;5.15;;;;;;;13.02;56.25;101338.47;5037848;28;20049;-53
2021/10/24 12:03:51;;;;;;;7.32;4.97;;;;;;;13.15;54.33;101342.38;5038612;28;20047;-51
2021/10/24 12:06:18;;;;;;;7.30;5.35;;;;;;;13.28;52.66;101331.16;5032446;28;20053;-52
2021/10/24 12:08:49;;;;;;;9.18;5.70;;;;;;;13.36;52.77;101333.50;5042578;28;20048;-51
2021/10/24 12:11:43;;;;;;;9.32;5.32;;;;;;;13.60;51.70;101319.09;5037882;28;20047;-52
2021/10/24 12:14:15;;;;;;;7.68;4.10;;;;;;;13.83;50.40;101314.53;5027117;28;20045;-53
2021/10/24 12:16:46;;;;;;;6.32;3.80;;;;;;;14.09;48.67;101316.84;5026559;28;20052;-50
2021/10/24 12:19:16;;;;;;;7.43;3.90;;;;;;;14.45;48.63;101311.59;5040834;28;20510;-51
2021/10/24 12:22:06;;;;;;;6.45;3.28;;;;;;;14.83;46.89;101304.38;5040449;28;20413;-52
2021/10/24 12:24:50;;;;;;;6.43;3.58;;;;;;;15.35;45.18;101294.56;5039618;28;20061;-52
2021/10/24 12:27:31;;;;;;;7.65;3.08;;;;;;;16.11;43.42;101301.13;5034503;28;20132;-52
2021/10/24 12:30:21;;;;;;;6.00;3.20;;;;;;;17.19;41.63;101289.50;5040403;28;20044;-53
2021/10/24 12:33:05;;;;;;;6.80;3.03;;;;;;;17.88;39.62;101286.16;5029939;28;20041;-54
2021/10/24 12:35:43;;;;;;;4.38;3.10;;;;;;;18.75;38.24;101288.53;5031076;28;20056;-53
2021/10/24 12:38:10;;;;;;;5.20;3.53;;;;;;;19.82;36.51;101292.78;5044680;28;20052;-52
2021/10/24 12:40:37;;;;;;;6.47;4.70;;;;;;;20.85;33.80;101284.25;5037093;28;20049;-52
2021/10/24 12:43:12;;;;;;;4.95;3.22;;;;;;;21.60;32.70;101278.47;5035405;28;20045;-51
2021/10/24 12:45:45;;;;;;;4.47;3.13;;;;;;;21.80;31.25;101266.97;5025178;28;20049;-52
2021/10/24 12:48:12;;;;;;;5.93;2.92;;;;;;;21.96;32.08;101266.59;5044832;28;20051;-52
2021/10/24 12:50:40;;;;;;;6.28;3.20;;;;;;;22.39;31.13;101231.56;5039720;28;20037;-52
2021/10/24 12:53:15;;;;;;;6.32;3.03;;;;;;;22.80;29.98;101249.75;5039982;28;20518;-52
2021/10/24 12:56:03;;;;;;;4.68;2.60;;;;;;;23.02;29.75;101251.44;5029185;28;20056;-52
2021/10/24 12:58:30;;;;;;;4.00;2.58;;;;;;;23.34;28.94;101246.81;5036606;28;20048;-52
2021/10/24 13:00:57;;;;;;;3.70;2.35;;;;;;;23.40;28.96;101248.16;5032176;28;20041;-53
2021/10/24 13:03:24;;;;;;;6.20;2.40;;;;;;;23.04;29.24;101239.53;5033063;28;20793;-53
2021/10/24 13:05:51;;;;;;;4.63;2.58;;;;;;;22.93;29.41;101233.34;5026963;28;20052;-53
2021/10/24 13:08:17;;;;;;;6.13;2.65;;;;;;;22.93;29.14;101231.50;5042180;28;20494;-51
2021/10/24 13:10:44;;;;;;;4.00;2.45;;;;;;;23.01;29.37;101228.13;5042015;28;20037;-53
2021/10/24 13:13:11;;;;;;;3.88;2.58;;;;;;;23.34;28.86;101230.63;5044142;28;20044;-54
2021/10/24 13:15:38;;;;;;;6.47;2.55;;;;;;;23.34;28.65;101227.06;5036133;28;20049;-52
2021/10/24 13:18:04;;;;;;;4.30;2.40;;;;;;;22.80;28.84;101230.84;5040056;28;20052;-53
2021/10/24 13:20:33;;;;;;;3.95;2.63;;;;;;;21.91;30.46;101226.50;5035622;28;20041;-52
2021/10/24 13:23:03;;;;;;;5.35;3.00;;;;;;;20.65;32.50;101223.84;5042111;28;20559;-51
2021/10/24 13:25:30;;;;;;;;;;;;;;;19.71;33.85;101230.84;5038530;28;20422;-51
2021/10/24 13:27:57;;;;;;;4.78;3.08;;;;;;;18.86;35.81;101228.78;5037107;28;19924;-51
2021/10/24 13:30:25;;;;;;;8.27;3.40;;;;;;;18.17;37.75;101221.78;5032601;28;20084;-54
2021/10/24 13:32:52;;;;;;;4.55;3.10;;;;;;;17.73;38.28;101216.59;5039138;28;20049;-52
2021/10/24 13:35:19;;;;;;;4.20;3.00;;;;;;;17.41;39.09;101226.63;5029730;28;20548;-54
2021/10/24 13:37:46;;;;;;;5.60;2.47;;;;;;;17.00;40.25;101215.81;5035692;28;20407;-52
2021/10/24 13:40:14;;;;;;;4.32;2.90;;;;;;;16.66;41.17;101223.16;5039291;28;20410;-52
2021/10/24 13:42:42;;;;;;;4.88;3.00;;;;;;;16.47;41.15;101223.34;5039840;28;20059;-53
2021/10/24 13:45:10;;;;;;;4.30;2.50;;;;;;;16.29;41.96;101218.19;5040136;28;20063;-52
2021/10/24 13:47:37;;;;;;;7.30;2.75;;;;;;;16.10;42.31;101218.38;5025889;28;20049;-51
2021/10/24 13:50:05;;;;;;;4.78;2.53;;;;;;;15.90;43.18;101210.66;5037391;28;20056;-54
2021/10/24 13:52:32;;;;;;;5.03;2.85;;;;;;;15.74;43.18;101197.28;5039871;28;20040;-53
2021/10/24 13:54:59;;;;;;;4.10;2.45;;;;;;;15.63;43.46;101199.69;5034139;28;20040;-52
2021/10/24 13:57:26;;;;;;;4.22;2.60;;;;;;;15.52;43.93;101199.38;5029225;28;20060;-53
2021/10/24 13:59:52;;;;;;;5.03;2.83;;;;;;;15.37;44.15;101201.06;5041314;28;20049;-53
2021/10/24 14:02:20;;;;;;;5.35;2.50;;;;;;;15.18;44.92;101201.19;5050076;28;20051;-54
2021/10/24 14:04:47;;;;;;;3.92;2.58;;;;;;;14.94;45.23;101191.84;5041337;28;20053;-55
2021/10/24 14:07:14;;;;;;;4.75;2.90;;;;;;;14.87;45.58;101180.63;5031626;28;20477;-52
2021/10/24 14:09:42;;;;;;;4.70;2.70;;;;;;;14.66;46.44;101176.38;5034973;28;20053;-51
2021/10/24 14:12:09;;;;;;;4.97;3.00;;;;;;;14.59;46.89;101185.66;5036579;28;20041;-52
2021/10/24 14:14:36;;;;;;;3.05;2.20;;;;;;;14.53;46.69;101183.28;5036848;28;20666;-53
2021/10/24 14:17:03;;;;;;;6.13;2.60;;;;;;;14.48;46.33;101172.03;5026205;28;20076;-52
2021/10/24 14:19:29;;;;;;;3.88;2.55;;;;;;;14.35;47.02;101171.72;5032346;28;20301;-53
2021/10/24 14:21:55;;;;;;;5.43;2.42;;;;;;;14.30;47.39;101168.44;5029615;28;20474;-53
2021/10/24 14:24:22;;;;;;;4.22;2.40;;;;;;;14.28;47.64;101168.50;5035130;28;20040;-52
2021/10/24 14:26:49;;;;;;;5.47;2.83;;;;;;;14.26;47.36;101165.06;5026449;28;20498;-53
2021/10/24 14:29:16;;;;;;;4.15;2.53;;;;;;;14.24;47.71;101171.41;5038967;28;20056;-52
2021/10/24 14:31:43;;;;;;;6.00;2.95;;;;;;;14.12;48.29;101175.53;5038566;28;20052;-52
2021/10/24 14:34:10;;;;;;;7.57;4.75;;;;;;;14.09;48.31;101166.84;5034261;28;20041;-54
2021/10/24 14:36:36;;;;;;;9.68;5.22;;;;;;;14.12;48.34;101172.00;5028439;28;20517;-53
2021/10/24 14:39:07;;;;;;;7.20;3.92;;;;;;;14.08;48.78;101168.63;5038671;28;20045;-52
2021/10/24 14:41:34;;;;;;;;;;;;;;;14.03;49.05;101173.31;5035916;28;20056;-53
2021/10/24 14:44:00;;;;;;;3.65;2.90;;;;;;;13.97;49.15;101161.19;5036200;28;19935;-53
2021/10/24 14:46:27;;;;;;;4.70;3.10;;;;;;;13.84;49.41;101159.19;5035007;28;20947;-52
2021/10/24 14:48:54;;;;;;;8.00;3.80;;;;;;;13.77;49.60;101161.28;5041371;28;20114;-53
2021/10/24 14:51:21;;;;;;;4.68;3.17;;;;;;;13.82;49.45;101158.41;5037278;28;20049;-53
2021/10/24 14:53:48;;;;;;;6.80;3.13;;;;;;;13.81;49.08;101152.22;5043644;28;20048;-54
2021/10/24 14:56:15;;;;;;;7.20;3.70;;;;;;;13.79;49.09;101155.88;5033944;28;20041;-52
2021/10/24 14:58:41;;;;;;;9.02;4.03;;;;;;;13.68;49.91;101153.75;5037159;28;20534;-53
2021/10/24 15:01:08;;;;;;;5.57;3.22;;;;;;;13.67;49.63;101152.88;5039415;28;20045;-53
2021/10/24 15:03:36;;;;;;;5.28;3.15;;;;;;;13.61;49.65;101144.31;5042231;28;20452;-53
2021/10/24 15:06:03;;;;;;;5.93;3.15;;;;;;;13.53;50.33;101150.00;5034746;28;20090;-52
2021/10/24 15:08:30;;;;;;;5.43;2.85;;;;;;;13.48;50.57;101143.16;5036671;28;20053;-52
2021/10/24 15:10:57;;;;;;;4.32;2.95;;;;;;;13.46;50.46;101145.91;5045442;28;20071;-51
2021/10/24 15:13:24;;;;;;;5.90;3.22;;;;;;;13.37;51.64;101137.50;5040728;28;20041;-52